CEB977 RPLL-RPMD
Flight info
| Callsign | CEB977 |
|---|---|
| Flight time | 1h 29m |
| Altitude | 39000 |
| Route | IPATA2R IPATA B462 MASBA W9A BN W9 RIMAR RIMAR2R |
| Aircraft | A20N/M-SDE2E3FGHIRWXY/LB1 |
Departure
| Time | 2026-05-04 14:31 |
|---|---|
| Airport | Ninoy Aquino International Airport (RPLL) |
Arrival
| Time | 2026-05-04 16:00 |
|---|---|
| Airport | Francisco Bangoy International Airport (RPMD) |
| Time | Latitude | Longitude | Altitude | Speed | Heading |
|---|---|---|---|---|---|
| 2026-05-04 13:26 | 14.51662 | 121.01520 | 84 ft | 0 kts | 46° |
| 2026-05-04 14:07 | 14.51661 | 121.01518 | 84 ft | 1 kts | 44° |
| 2026-05-04 14:08 | 14.51654 | 121.01507 | 84 ft | 2 kts | 47° |
| 2026-05-04 14:08 | 14.51643 | 121.01496 | 84 ft | 2 kts | 46° |
| 2026-05-04 14:08 | 14.51633 | 121.01485 | 84 ft | 2 kts | 46° |
| 2026-05-04 14:08 | 14.51623 | 121.01474 | 84 ft | 2 kts | 46° |
| 2026-05-04 14:09 | 14.51607 | 121.01448 | 84 ft | 2 kts | 87° |
| 2026-05-04 14:09 | 14.51609 | 121.01434 | 84 ft | 2 kts | 115° |
| 2026-05-04 14:10 | 14.51620 | 121.01420 | 83 ft | 0 kts | 135° |
| 2026-05-04 14:12 | 14.51619 | 121.01420 | 83 ft | 0 kts | 135° |
| 2026-05-04 14:12 | 14.51572 | 121.01469 | 83 ft | 9 kts | 135° |
| 2026-05-04 14:13 | 14.51516 | 121.01527 | 83 ft | 13 kts | 134° |
| 2026-05-04 14:13 | 14.51443 | 121.01603 | 83 ft | 16 kts | 135° |
| 2026-05-04 14:13 | 14.51391 | 121.01656 | 83 ft | 19 kts | 136° |
| 2026-05-04 14:13 | 14.51290 | 121.01760 | 83 ft | 22 kts | 133° |
| 2026-05-04 14:14 | 14.51180 | 121.01874 | 83 ft | 16 kts | 136° |
| 2026-05-04 14:14 | 14.51114 | 121.01942 | 83 ft | 5 kts | 133° |
| 2026-05-04 14:14 | 14.51110 | 121.01947 | 83 ft | 1 kts | 133° |
| 2026-05-04 14:15 | 14.51064 | 121.01995 | 83 ft | 4 kts | 148° |
| 2026-05-04 14:15 | 14.51020 | 121.01950 | 83 ft | 5 kts | 240° |
| 2026-05-04 14:16 | 14.50975 | 121.01869 | 83 ft | 7 kts | 240° |
| 2026-05-04 14:16 | 14.50948 | 121.01821 | 83 ft | 8 kts | 240° |
| 2026-05-04 14:17 | 14.50887 | 121.01711 | 83 ft | 9 kts | 240° |
| 2026-05-04 14:17 | 14.50852 | 121.01650 | 83 ft | 10 kts | 239° |
| 2026-05-04 14:17 | 14.50774 | 121.01513 | 83 ft | 11 kts | 239° |
| 2026-05-04 14:18 | 14.50643 | 121.01289 | 83 ft | 13 kts | 238° |
| 2026-05-04 14:19 | 14.50560 | 121.01123 | 83 ft | 13 kts | 240° |
| 2026-05-04 14:19 | 14.50514 | 121.01041 | 83 ft | 13 kts | 240° |
| 2026-05-04 14:19 | 14.50468 | 121.00956 | 83 ft | 13 kts | 240° |
| 2026-05-04 14:19 | 14.50419 | 121.00870 | 83 ft | 14 kts | 240° |
| 2026-05-04 14:20 | 14.50371 | 121.00783 | 83 ft | 14 kts | 240° |
| 2026-05-04 14:20 | 14.50322 | 121.00693 | 83 ft | 14 kts | 240° |
| 2026-05-04 14:20 | 14.50272 | 121.00603 | 83 ft | 14 kts | 240° |
| 2026-05-04 14:21 | 14.50169 | 121.00422 | 83 ft | 14 kts | 239° |
| 2026-05-04 14:21 | 14.50118 | 121.00329 | 83 ft | 15 kts | 241° |
| 2026-05-04 14:21 | 14.50067 | 121.00235 | 83 ft | 15 kts | 240° |
| 2026-05-04 14:21 | 14.50015 | 121.00142 | 83 ft | 14 kts | 240° |
| 2026-05-04 14:22 | 14.49988 | 121.00095 | 83 ft | 5 kts | 239° |
| 2026-05-04 14:22 | 14.49987 | 121.00092 | 83 ft | 0 kts | 239° |
| 2026-05-04 14:22 | 14.49986 | 121.00091 | 83 ft | 0 kts | 239° |
| 2026-05-04 14:22 | 14.49981 | 121.00081 | 83 ft | 2 kts | 240° |
| 2026-05-04 14:23 | 14.49960 | 121.00044 | 83 ft | 3 kts | 240° |
| 2026-05-04 14:23 | 14.49945 | 121.00016 | 83 ft | 4 kts | 240° |
| 2026-05-04 14:23 | 14.49938 | 121.00005 | 83 ft | 0 kts | 240° |
| 2026-05-04 14:25 | 14.49926 | 120.99983 | 83 ft | 3 kts | 240° |
| 2026-05-04 14:25 | 14.49906 | 120.99962 | 83 ft | 4 kts | 201° |
| 2026-05-04 14:26 | 14.49877 | 120.99965 | 83 ft | 0 kts | 155° |
| 2026-05-04 14:28 | 14.49876 | 120.99965 | 83 ft | 0 kts | 155° |
| 2026-05-04 14:28 | 14.49835 | 120.99992 | 83 ft | 10 kts | 147° |
| 2026-05-04 14:28 | 14.49800 | 121.00018 | 83 ft | 4 kts | 129° |
| 2026-05-04 14:29 | 14.49800 | 121.00043 | 83 ft | 0 kts | 60° |
| 2026-05-04 14:30 | 14.49805 | 121.00050 | 83 ft | 5 kts | 60° |
| 2026-05-04 14:30 | 14.49943 | 121.00301 | 84 ft | 81 kts | 59° |
| 2026-05-04 14:30 | 14.50892 | 121.02015 | 463 ft | 173 kts | 62° |
| 2026-05-04 14:31 | 14.51488 | 121.03087 | 1267 ft | 174 kts | 63° |
| 2026-05-04 14:31 | 14.52683 | 121.05257 | 2905 ft | 179 kts | 63° |
| 2026-05-04 14:32 | 14.54000 | 121.07649 | 4147 ft | 212 kts | 63° |
| 2026-05-04 14:32 | 14.54764 | 121.09036 | 4602 ft | 232 kts | 62° |
| 2026-05-04 14:32 | 14.55471 | 121.10573 | 5023 ft | 248 kts | 81° |
| 2026-05-04 14:32 | 14.55339 | 121.12354 | 5419 ft | 259 kts | 117° |
| 2026-05-04 14:33 | 14.54216 | 121.13844 | 5903 ft | 269 kts | 141° |
| 2026-05-04 14:33 | 14.52764 | 121.15064 | 6617 ft | 275 kts | 144° |
| 2026-05-04 14:33 | 14.51277 | 121.16312 | 7299 ft | 282 kts | 142° |
| 2026-05-04 14:33 | 14.49770 | 121.17651 | 8019 ft | 288 kts | 141° |
| 2026-05-04 14:34 | 14.48271 | 121.19051 | 8705 ft | 295 kts | 140° |
| 2026-05-04 14:34 | 14.46788 | 121.20486 | 9433 ft | 299 kts | 139° |
| 2026-05-04 14:34 | 14.45279 | 121.21971 | 10076 ft | 305 kts | 138° |
| 2026-05-04 14:34 | 14.43716 | 121.23531 | 10578 ft | 318 kts | 138° |
| 2026-05-04 14:35 | 14.42089 | 121.25166 | 10899 ft | 336 kts | 137° |
| 2026-05-04 14:35 | 14.40398 | 121.26871 | 11388 ft | 346 kts | 137° |
| 2026-05-04 14:35 | 14.38673 | 121.28614 | 12067 ft | 350 kts | 136° |
| 2026-05-04 14:35 | 14.36937 | 121.30376 | 12746 ft | 354 kts | 136° |
| 2026-05-04 14:36 | 14.35193 | 121.32147 | 13443 ft | 357 kts | 136° |
| 2026-05-04 14:36 | 14.33411 | 121.33958 | 14152 ft | 359 kts | 137° |
| 2026-05-04 14:36 | 14.31640 | 121.35755 | 14846 ft | 362 kts | 137° |
| 2026-05-04 14:36 | 14.29830 | 121.37590 | 15537 ft | 364 kts | 137° |
| 2026-05-04 14:37 | 14.28033 | 121.39411 | 16210 ft | 366 kts | 137° |
| 2026-05-04 14:37 | 14.26224 | 121.41242 | 16871 ft | 369 kts | 137° |
| 2026-05-04 14:37 | 14.24376 | 121.43114 | 17530 ft | 371 kts | 137° |
| 2026-05-04 14:37 | 14.22550 | 121.44961 | 18167 ft | 373 kts | 137° |
| 2026-05-04 14:38 | 14.20703 | 121.46830 | 18795 ft | 375 kts | 137° |
| 2026-05-04 14:38 | 14.18836 | 121.48720 | 19408 ft | 377 kts | 137° |
| 2026-05-04 14:38 | 14.16954 | 121.50623 | 20012 ft | 380 kts | 137° |
| 2026-05-04 14:38 | 14.15093 | 121.52505 | 20599 ft | 382 kts | 137° |
| 2026-05-04 14:39 | 14.13196 | 121.54424 | 21408 ft | 377 kts | 137° |
| 2026-05-04 14:39 | 14.11353 | 121.56290 | 22262 ft | 371 kts | 137° |
| 2026-05-04 14:39 | 14.09519 | 121.58144 | 22875 ft | 372 kts | 137° |
| 2026-05-04 14:40 | 14.05833 | 121.61868 | 23939 ft | 377 kts | 137° |
| 2026-05-04 14:40 | 14.03962 | 121.63758 | 24460 ft | 379 kts | 137° |
| 2026-05-04 14:40 | 14.02069 | 121.65672 | 24969 ft | 381 kts | 137° |
| 2026-05-04 14:40 | 14.00197 | 121.67575 | 25457 ft | 383 kts | 137° |
| 2026-05-04 14:41 | 13.98287 | 121.69516 | 25939 ft | 385 kts | 137° |
| 2026-05-04 14:41 | 13.96393 | 121.71435 | 26398 ft | 388 kts | 137° |
| 2026-05-04 14:41 | 13.92521 | 121.75347 | 27289 ft | 392 kts | 137° |
| 2026-05-04 14:42 | 13.88636 | 121.79260 | 28113 ft | 396 kts | 137° |
| 2026-05-04 14:42 | 13.86692 | 121.81278 | 28501 ft | 398 kts | 134° |
| 2026-05-04 14:42 | 13.84868 | 121.83390 | 28873 ft | 401 kts | 131° |
| 2026-05-04 14:43 | 13.83065 | 121.85585 | 29238 ft | 403 kts | 131° |
| 2026-05-04 14:43 | 13.81261 | 121.87797 | 29582 ft | 405 kts | 131° |
| 2026-05-04 14:43 | 13.79440 | 121.90030 | 29912 ft | 407 kts | 131° |
| 2026-05-04 14:43 | 13.77648 | 121.92228 | 30227 ft | 408 kts | 131° |
| 2026-05-04 14:44 | 13.75811 | 121.94480 | 30533 ft | 410 kts | 131° |
| 2026-05-04 14:44 | 13.73983 | 121.96720 | 30825 ft | 412 kts | 131° |
| 2026-05-04 14:44 | 13.72148 | 121.98968 | 31110 ft | 414 kts | 131° |
| 2026-05-04 14:44 | 13.70287 | 122.01246 | 31386 ft | 415 kts | 130° |
| 2026-05-04 14:45 | 13.68449 | 122.03494 | 31647 ft | 417 kts | 130° |
| 2026-05-04 14:45 | 13.66573 | 122.05790 | 31904 ft | 419 kts | 130° |
| 2026-05-04 14:45 | 13.64706 | 122.08073 | 32149 ft | 420 kts | 130° |
| 2026-05-04 14:45 | 13.62830 | 122.10367 | 32392 ft | 422 kts | 130° |
| 2026-05-04 14:46 | 13.60956 | 122.12659 | 32630 ft | 423 kts | 130° |
| 2026-05-04 14:46 | 13.59061 | 122.14974 | 32866 ft | 424 kts | 130° |
| 2026-05-04 14:46 | 13.57167 | 122.17288 | 33086 ft | 426 kts | 130° |
| 2026-05-04 14:46 | 13.55258 | 122.19620 | 33304 ft | 427 kts | 130° |
| 2026-05-04 14:47 | 13.53341 | 122.21961 | 33513 ft | 429 kts | 130° |
| 2026-05-04 14:47 | 13.51416 | 122.24311 | 33714 ft | 430 kts | 130° |
| 2026-05-04 14:47 | 13.49501 | 122.26649 | 33911 ft | 431 kts | 130° |
| 2026-05-04 14:47 | 13.47557 | 122.29018 | 34101 ft | 433 kts | 130° |
| 2026-05-04 14:48 | 13.45639 | 122.31359 | 34281 ft | 434 kts | 130° |
| 2026-05-04 14:48 | 13.43700 | 122.33723 | 34461 ft | 435 kts | 130° |
| 2026-05-04 14:48 | 13.41746 | 122.36105 | 34632 ft | 436 kts | 130° |
| 2026-05-04 14:48 | 13.39783 | 122.38497 | 34794 ft | 437 kts | 130° |
| 2026-05-04 14:49 | 13.37822 | 122.40886 | 34944 ft | 438 kts | 130° |
| 2026-05-04 14:49 | 13.35890 | 122.43240 | 35088 ft | 439 kts | 130° |
| 2026-05-04 14:49 | 13.33899 | 122.45664 | 35257 ft | 440 kts | 130° |
| 2026-05-04 14:49 | 13.31948 | 122.48040 | 35456 ft | 439 kts | 130° |
| 2026-05-04 14:50 | 13.29974 | 122.50442 | 35657 ft | 438 kts | 130° |
| 2026-05-04 14:50 | 13.28024 | 122.52816 | 35843 ft | 438 kts | 130° |
| 2026-05-04 14:50 | 13.26076 | 122.55186 | 36019 ft | 437 kts | 130° |
| 2026-05-04 14:50 | 13.24106 | 122.57581 | 36194 ft | 437 kts | 130° |
| 2026-05-04 14:51 | 13.22169 | 122.59937 | 36356 ft | 436 kts | 130° |
| 2026-05-04 14:51 | 13.20204 | 122.62327 | 36508 ft | 436 kts | 130° |
| 2026-05-04 14:51 | 13.18256 | 122.64695 | 36652 ft | 436 kts | 130° |
| 2026-05-04 14:51 | 13.16320 | 122.67053 | 36791 ft | 436 kts | 130° |
| 2026-05-04 14:52 | 13.14360 | 122.69450 | 36922 ft | 436 kts | 130° |
| 2026-05-04 14:52 | 13.12412 | 122.71828 | 37049 ft | 436 kts | 130° |
| 2026-05-04 14:52 | 13.10478 | 122.74184 | 37174 ft | 436 kts | 130° |
| 2026-05-04 14:52 | 13.08513 | 122.76576 | 37285 ft | 437 kts | 130° |
| 2026-05-04 14:53 | 13.04603 | 122.81325 | 37462 ft | 438 kts | 131° |
| 2026-05-04 14:53 | 13.00669 | 122.86095 | 37622 ft | 440 kts | 131° |
| 2026-05-04 14:54 | 12.96724 | 122.90874 | 37776 ft | 442 kts | 131° |
| 2026-05-04 14:54 | 12.92742 | 122.95696 | 37959 ft | 443 kts | 131° |
| 2026-05-04 14:55 | 12.90777 | 122.98074 | 38067 ft | 443 kts | 131° |
| 2026-05-04 14:55 | 12.88764 | 123.00506 | 38171 ft | 443 kts | 131° |
| 2026-05-04 14:55 | 12.84776 | 123.05296 | 38358 ft | 443 kts | 131° |
| 2026-05-04 14:56 | 12.80813 | 123.10072 | 38539 ft | 443 kts | 130° |
| 2026-05-04 14:56 | 12.76826 | 123.14886 | 38711 ft | 443 kts | 130° |
| 2026-05-04 14:57 | 12.72855 | 123.19683 | 38871 ft | 443 kts | 130° |
| 2026-05-04 14:57 | 12.68890 | 123.24470 | 38931 ft | 444 kts | 130° |
| 2026-05-04 14:58 | 12.65573 | 123.28474 | 38935 ft | 444 kts | 130° |
| 2026-05-04 14:58 | 12.61589 | 123.33282 | 38936 ft | 444 kts | 130° |
| 2026-05-04 14:59 | 12.57603 | 123.38090 | 38936 ft | 444 kts | 130° |
| 2026-05-04 15:00 | 12.51622 | 123.45302 | 38936 ft | 444 kts | 130° |
| 2026-05-04 15:00 | 12.47654 | 123.50088 | 38936 ft | 444 kts | 130° |
| 2026-05-04 15:01 | 12.41638 | 123.57244 | 38936 ft | 443 kts | 133° |
| 2026-05-04 15:01 | 12.37181 | 123.61591 | 38935 ft | 443 kts | 140° |
| 2026-05-04 15:02 | 12.32268 | 123.65346 | 38935 ft | 443 kts | 147° |
| 2026-05-04 15:02 | 12.27014 | 123.68504 | 38937 ft | 442 kts | 152° |
| 2026-05-04 15:03 | 12.21603 | 123.71493 | 38936 ft | 442 kts | 152° |
| 2026-05-04 15:03 | 12.16197 | 123.74470 | 38936 ft | 442 kts | 152° |
| 2026-05-04 15:04 | 12.10823 | 123.77432 | 38936 ft | 442 kts | 152° |
| 2026-05-04 15:04 | 12.05407 | 123.80416 | 38936 ft | 442 kts | 152° |
| 2026-05-04 15:05 | 12.00024 | 123.83382 | 38936 ft | 442 kts | 152° |
| 2026-05-04 15:05 | 11.94627 | 123.86354 | 38936 ft | 442 kts | 152° |
| 2026-05-04 15:06 | 11.89244 | 123.89317 | 38936 ft | 442 kts | 152° |
| 2026-05-04 15:07 | 11.81140 | 123.93753 | 38936 ft | 442 kts | 152° |
| 2026-05-04 15:07 | 11.75765 | 123.96703 | 38936 ft | 442 kts | 152° |
| 2026-05-04 15:08 | 11.70376 | 123.99663 | 38936 ft | 442 kts | 152° |
| 2026-05-04 15:08 | 11.64977 | 124.02629 | 38936 ft | 442 kts | 152° |
| 2026-05-04 15:09 | 11.59570 | 124.05598 | 38937 ft | 442 kts | 152° |
| 2026-05-04 15:09 | 11.54174 | 124.08559 | 38936 ft | 442 kts | 152° |
| 2026-05-04 15:10 | 11.46117 | 124.12979 | 38936 ft | 442 kts | 152° |
| 2026-05-04 15:11 | 11.38016 | 124.17422 | 38936 ft | 442 kts | 152° |
| 2026-05-04 15:11 | 11.32630 | 124.20373 | 38936 ft | 441 kts | 152° |
| 2026-05-04 15:12 | 11.27219 | 124.23338 | 38936 ft | 441 kts | 152° |
| 2026-05-04 15:12 | 11.21822 | 124.26296 | 38936 ft | 441 kts | 152° |
| 2026-05-04 15:13 | 11.16466 | 124.29230 | 38936 ft | 441 kts | 152° |
| 2026-05-04 15:13 | 11.11079 | 124.32181 | 38936 ft | 441 kts | 152° |
| 2026-05-04 15:14 | 11.05670 | 124.35131 | 38936 ft | 441 kts | 152° |
| 2026-05-04 15:14 | 11.00278 | 124.38027 | 38936 ft | 441 kts | 152° |
| 2026-05-04 15:15 | 10.94841 | 124.40950 | 38936 ft | 441 kts | 152° |
| 2026-05-04 15:15 | 10.89457 | 124.43851 | 38937 ft | 441 kts | 152° |
| 2026-05-04 15:16 | 10.82100 | 124.47800 | 38935 ft | 441 kts | 152° |
| 2026-05-04 15:17 | 10.73988 | 124.52167 | 38938 ft | 441 kts | 152° |
| 2026-05-04 15:17 | 10.65931 | 124.56528 | 38936 ft | 441 kts | 152° |
| 2026-05-04 15:18 | 10.60508 | 124.59470 | 38935 ft | 441 kts | 152° |
| 2026-05-04 15:19 | 10.52415 | 124.63861 | 38936 ft | 441 kts | 152° |
| 2026-05-04 15:19 | 10.44339 | 124.68268 | 38936 ft | 440 kts | 152° |
| 2026-05-04 15:20 | 10.38981 | 124.71190 | 38935 ft | 441 kts | 152° |
| 2026-05-04 15:20 | 10.33583 | 124.74120 | 38936 ft | 441 kts | 152° |
| 2026-05-04 15:21 | 10.28216 | 124.77029 | 38936 ft | 440 kts | 152° |
| 2026-05-04 15:22 | 10.20108 | 124.81419 | 38936 ft | 440 kts | 152° |
| 2026-05-04 15:22 | 10.12060 | 124.85775 | 38937 ft | 439 kts | 152° |
| 2026-05-04 15:23 | 10.06685 | 124.88682 | 38937 ft | 439 kts | 152° |
| 2026-05-04 15:23 | 10.01310 | 124.91587 | 38936 ft | 438 kts | 152° |
| 2026-05-04 15:24 | 9.90616 | 124.97366 | 38936 ft | 436 kts | 152° |
| 2026-05-04 15:25 | 9.85330 | 125.00211 | 38936 ft | 435 kts | 152° |
| 2026-05-04 15:26 | 9.77341 | 125.04517 | 38936 ft | 435 kts | 152° |
| 2026-05-04 15:26 | 9.69377 | 125.08804 | 38936 ft | 434 kts | 152° |
| 2026-05-04 15:27 | 9.61399 | 125.13103 | 38936 ft | 434 kts | 152° |
| 2026-05-04 15:28 | 9.53413 | 125.17360 | 38936 ft | 434 kts | 153° |
| 2026-05-04 15:29 | 9.45440 | 125.21603 | 38936 ft | 434 kts | 153° |
| 2026-05-04 15:30 | 9.26774 | 125.31549 | 38618 ft | 433 kts | 153° |
| 2026-05-04 15:31 | 9.21505 | 125.34356 | 38117 ft | 427 kts | 153° |
| 2026-05-04 15:31 | 9.18882 | 125.35753 | 37825 ft | 425 kts | 153° |
| 2026-05-04 15:32 | 9.11097 | 125.39901 | 36402 ft | 425 kts | 153° |
| 2026-05-04 15:32 | 9.05849 | 125.42692 | 35136 ft | 428 kts | 152° |
| 2026-05-04 15:33 | 9.00554 | 125.45361 | 33816 ft | 432 kts | 156° |
| 2026-05-04 15:34 | 8.92067 | 125.48226 | 32292 ft | 425 kts | 166° |
| 2026-05-04 15:34 | 8.89371 | 125.48790 | 31906 ft | 421 kts | 169° |
| 2026-05-04 15:34 | 8.83661 | 125.49517 | 31115 ft | 412 kts | 174° |
| 2026-05-04 15:35 | 8.77989 | 125.50084 | 30330 ft | 404 kts | 174° |
| 2026-05-04 15:35 | 8.75188 | 125.50367 | 29941 ft | 400 kts | 174° |
| 2026-05-04 15:35 | 8.72459 | 125.50645 | 29558 ft | 396 kts | 174° |
| 2026-05-04 15:36 | 8.67014 | 125.51200 | 28793 ft | 390 kts | 174° |
| 2026-05-04 15:36 | 8.64335 | 125.51475 | 28427 ft | 386 kts | 174° |
| 2026-05-04 15:36 | 8.61691 | 125.51746 | 28084 ft | 382 kts | 174° |
| 2026-05-04 15:37 | 8.59073 | 125.52014 | 27769 ft | 378 kts | 174° |
| 2026-05-04 15:37 | 8.56467 | 125.52280 | 27416 ft | 375 kts | 174° |
| 2026-05-04 15:37 | 8.53868 | 125.52544 | 27049 ft | 373 kts | 174° |
| 2026-05-04 15:37 | 8.51299 | 125.52797 | 26677 ft | 370 kts | 175° |
| 2026-05-04 15:38 | 8.48766 | 125.53022 | 26306 ft | 368 kts | 175° |
| 2026-05-04 15:38 | 8.46220 | 125.53243 | 25927 ft | 365 kts | 175° |
| 2026-05-04 15:38 | 8.43693 | 125.53464 | 25549 ft | 363 kts | 175° |
| 2026-05-04 15:38 | 8.41217 | 125.53683 | 25177 ft | 361 kts | 175° |
| 2026-05-04 15:39 | 8.38715 | 125.53907 | 24798 ft | 358 kts | 175° |
| 2026-05-04 15:39 | 8.36242 | 125.54128 | 24422 ft | 356 kts | 175° |
| 2026-05-04 15:39 | 8.31348 | 125.54567 | 23671 ft | 352 kts | 175° |
| 2026-05-04 15:40 | 8.28956 | 125.54782 | 23301 ft | 350 kts | 175° |
| 2026-05-04 15:40 | 8.26535 | 125.55000 | 22925 ft | 348 kts | 175° |
| 2026-05-04 15:40 | 8.24143 | 125.55215 | 22551 ft | 346 kts | 175° |
| 2026-05-04 15:40 | 8.21752 | 125.55430 | 22174 ft | 344 kts | 175° |
| 2026-05-04 15:41 | 8.19385 | 125.55643 | 21802 ft | 342 kts | 176° |
| 2026-05-04 15:41 | 8.17007 | 125.55857 | 21426 ft | 340 kts | 176° |
| 2026-05-04 15:41 | 8.14660 | 125.56069 | 21050 ft | 339 kts | 176° |
| 2026-05-04 15:41 | 8.12336 | 125.56278 | 20679 ft | 337 kts | 176° |
| 2026-05-04 15:42 | 8.10011 | 125.56489 | 20305 ft | 335 kts | 176° |
| 2026-05-04 15:42 | 8.07720 | 125.56696 | 19938 ft | 334 kts | 176° |
| 2026-05-04 15:42 | 8.05408 | 125.56905 | 19565 ft | 332 kts | 176° |
| 2026-05-04 15:42 | 8.03101 | 125.57112 | 19190 ft | 331 kts | 176° |
| 2026-05-04 15:43 | 8.00830 | 125.57316 | 18821 ft | 329 kts | 176° |
| 2026-05-04 15:43 | 7.98552 | 125.57474 | 18443 ft | 327 kts | 181° |
| 2026-05-04 15:43 | 7.96281 | 125.57335 | 18066 ft | 325 kts | 189° |
| 2026-05-04 15:43 | 7.94091 | 125.56871 | 17694 ft | 322 kts | 197° |
| 2026-05-04 15:44 | 7.91965 | 125.56257 | 17328 ft | 321 kts | 198° |
| 2026-05-04 15:44 | 7.89834 | 125.55617 | 16960 ft | 319 kts | 198° |
| 2026-05-04 15:44 | 7.87747 | 125.54994 | 16596 ft | 318 kts | 198° |
| 2026-05-04 15:44 | 7.85633 | 125.54369 | 16229 ft | 317 kts | 198° |
| 2026-05-04 15:45 | 7.83544 | 125.53754 | 15866 ft | 316 kts | 198° |
| 2026-05-04 15:45 | 7.81465 | 125.53143 | 15504 ft | 315 kts | 198° |
| 2026-05-04 15:45 | 7.79343 | 125.52521 | 15134 ft | 314 kts | 198° |
| 2026-05-04 15:45 | 7.77275 | 125.51914 | 14776 ft | 313 kts | 198° |
| 2026-05-04 15:46 | 7.75182 | 125.51301 | 14411 ft | 311 kts | 198° |
| 2026-05-04 15:46 | 7.73124 | 125.50699 | 14051 ft | 310 kts | 198° |
| 2026-05-04 15:46 | 7.71057 | 125.50094 | 13689 ft | 309 kts | 198° |
| 2026-05-04 15:46 | 7.69003 | 125.49492 | 13328 ft | 308 kts | 198° |
| 2026-05-04 15:47 | 7.66952 | 125.48891 | 12968 ft | 307 kts | 198° |
| 2026-05-04 15:47 | 7.64917 | 125.48294 | 12613 ft | 306 kts | 199° |
| 2026-05-04 15:47 | 7.62872 | 125.47693 | 12254 ft | 305 kts | 199° |
| 2026-05-04 15:47 | 7.60854 | 125.47099 | 11900 ft | 304 kts | 199° |
| 2026-05-04 15:48 | 7.58815 | 125.46500 | 11543 ft | 303 kts | 199° |
| 2026-05-04 15:48 | 7.56798 | 125.45908 | 11192 ft | 302 kts | 199° |
| 2026-05-04 15:48 | 7.52771 | 125.44729 | 10495 ft | 300 kts | 198° |
| 2026-05-04 15:49 | 7.50783 | 125.44147 | 10154 ft | 299 kts | 198° |
| 2026-05-04 15:49 | 7.48782 | 125.43562 | 9995 ft | 298 kts | 198° |
| 2026-05-04 15:49 | 7.46795 | 125.42982 | 9994 ft | 296 kts | 198° |
| 2026-05-04 15:49 | 7.44826 | 125.42408 | 9992 ft | 295 kts | 198° |
| 2026-05-04 15:50 | 7.42864 | 125.41835 | 9991 ft | 295 kts | 198° |
| 2026-05-04 15:50 | 7.40877 | 125.41254 | 9991 ft | 295 kts | 198° |
| 2026-05-04 15:50 | 7.38916 | 125.40681 | 9991 ft | 295 kts | 198° |
| 2026-05-04 15:50 | 7.36939 | 125.40102 | 9991 ft | 295 kts | 198° |
| 2026-05-04 15:51 | 7.34961 | 125.39592 | 9947 ft | 293 kts | 190° |
| 2026-05-04 15:51 | 7.32959 | 125.39526 | 9425 ft | 290 kts | 175° |
| 2026-05-04 15:51 | 7.30968 | 125.39876 | 8606 ft | 296 kts | 169° |
| 2026-05-04 15:51 | 7.28966 | 125.40339 | 8085 ft | 294 kts | 168° |
| 2026-05-04 15:52 | 7.27001 | 125.40795 | 7622 ft | 291 kts | 168° |
| 2026-05-04 15:52 | 7.25028 | 125.41236 | 7120 ft | 289 kts | 168° |
| 2026-05-04 15:52 | 7.23082 | 125.41659 | 6609 ft | 285 kts | 169° |
| 2026-05-04 15:52 | 7.21148 | 125.42072 | 6128 ft | 287 kts | 169° |
| 2026-05-04 15:53 | 7.19218 | 125.42480 | 5807 ft | 284 kts | 169° |
| 2026-05-04 15:53 | 7.17292 | 125.42886 | 5449 ft | 282 kts | 168° |
| 2026-05-04 15:53 | 7.15385 | 125.43288 | 5084 ft | 280 kts | 168° |
| 2026-05-04 15:53 | 7.13464 | 125.43694 | 4720 ft | 279 kts | 168° |
| 2026-05-04 15:54 | 7.11587 | 125.44089 | 4365 ft | 277 kts | 168° |
| 2026-05-04 15:54 | 7.09700 | 125.44488 | 4045 ft | 274 kts | 168° |
| 2026-05-04 15:54 | 7.07881 | 125.44882 | 3958 ft | 262 kts | 165° |
| 2026-05-04 15:54 | 7.06241 | 125.45603 | 3655 ft | 259 kts | 146° |
| 2026-05-04 15:55 | 7.04826 | 125.46719 | 3384 ft | 255 kts | 139° |
| 2026-05-04 15:55 | 7.03520 | 125.47880 | 3119 ft | 252 kts | 137° |
| 2026-05-04 15:55 | 7.02226 | 125.49043 | 2854 ft | 241 kts | 135° |
| 2026-05-04 15:55 | 7.01374 | 125.50370 | 2715 ft | 218 kts | 98° |
| 2026-05-04 15:56 | 7.01530 | 125.51818 | 2708 ft | 206 kts | 63° |
| 2026-05-04 15:56 | 7.02335 | 125.52923 | 2631 ft | 190 kts | 46° |
| 2026-05-04 15:56 | 7.03190 | 125.53837 | 2505 ft | 168 kts | 44° |
| 2026-05-04 15:56 | 7.03966 | 125.54636 | 2345 ft | 149 kts | 45° |
| 2026-05-04 15:57 | 7.04655 | 125.55385 | 2210 ft | 145 kts | 46° |
| 2026-05-04 15:57 | 7.05322 | 125.56143 | 1973 ft | 144 kts | 47° |
| 2026-05-04 15:57 | 7.05973 | 125.56903 | 1786 ft | 144 kts | 48° |
| 2026-05-04 15:57 | 7.06634 | 125.57679 | 1592 ft | 143 kts | 48° |
| 2026-05-04 15:58 | 7.07282 | 125.58438 | 1403 ft | 143 kts | 48° |
| 2026-05-04 15:58 | 7.07926 | 125.59190 | 1216 ft | 143 kts | 48° |
| 2026-05-04 15:58 | 7.08581 | 125.59953 | 1025 ft | 142 kts | 48° |
| 2026-05-04 15:58 | 7.09225 | 125.60704 | 837 ft | 142 kts | 48° |
| 2026-05-04 15:59 | 7.09867 | 125.61453 | 668 ft | 142 kts | 48° |
| 2026-05-04 15:59 | 7.10517 | 125.62209 | 464 ft | 141 kts | 48° |
| 2026-05-04 15:59 | 7.11156 | 125.62953 | 303 ft | 141 kts | 48° |
| 2026-05-04 15:59 | 7.11801 | 125.63704 | 120 ft | 140 kts | 48° |
| 2026-05-04 16:00 | 7.12359 | 125.64354 | 104 ft | 91 kts | 51° |
| 2026-05-04 16:00 | 7.12589 | 125.64619 | 104 ft | 24 kts | 48° |
| 2026-05-04 16:00 | 7.12697 | 125.64748 | 104 ft | 23 kts | 52° |
| 2026-05-04 16:00 | 7.12801 | 125.64869 | 104 ft | 22 kts | 45° |
| 2026-05-04 16:01 | 7.12856 | 125.64920 | 104 ft | 7 kts | 16° |
| 2026-05-04 16:01 | 7.12907 | 125.64897 | 103 ft | 8 kts | 320° |
| 2026-05-04 16:01 | 7.12955 | 125.64855 | 104 ft | 9 kts | 319° |
| 2026-05-04 16:01 | 7.13008 | 125.64809 | 104 ft | 10 kts | 319° |
| 2026-05-04 16:02 | 7.13042 | 125.64778 | 104 ft | 0 kts | 319° |
| 2026-05-04 16:02 | 7.13043 | 125.64777 | 104 ft | 0 kts | 304° |
| 2026-05-04 16:02 | 7.13036 | 125.64776 | 104 ft | 2 kts | 126° |
| 2026-05-04 16:03 | 7.13042 | 125.64763 | 104 ft | 5 kts | 244° |
| 2026-05-04 16:03 | 7.13010 | 125.64759 | 104 ft | 4 kts | 208° |
| 2026-05-04 16:03 | 7.12988 | 125.64733 | 104 ft | 5 kts | 229° |
| 2026-05-04 16:03 | 7.12961 | 125.64702 | 104 ft | 6 kts | 228° |
| 2026-05-04 16:04 | 7.12946 | 125.64684 | 104 ft | 0 kts | 228° |
| 2026-05-04 16:04 | 7.12935 | 125.64670 | 104 ft | 7 kts | 238° |
| 2026-05-04 16:05 | 7.12972 | 125.64614 | 104 ft | 12 kts | 321° |
| 2026-05-04 16:05 | 7.12993 | 125.64597 | 104 ft | 0 kts | 320° |